Aviation Digital Data Service (ADDS)

Output produced by METARs form (1436 UTC 19 April 2019)
found at http://www.aviationweather.gov/metar/data/
 
METAR text: ENBO 191420Z 12005KT 9999 FEW020 SCT060 BKN080 08/06 Q1031 NOSIG
Conditions at: ENBO (BODO VI (CIV/MIL, NO) observed 1420 UTC 19 April 2019
Temperature: 8.0°C (46°F)
Dewpoint: 6.0°C (43°F) [RH = 87%]
Pressure (altimeter): 30.44 inches Hg (1031.0 mb)
Winds: from the ESE (120 degrees) at 6 MPH (5 knots; 2.6 m/s)
Visibility: 6 or more miles (10+ km)
Ceiling: 8000 feet AGL
Clouds: few clouds at 2000 feet AGL
scattered clouds at 6000 feet AGL
broken clouds at 8000 feet AGL
Weather: no significant weather observed at this time

METAR text: ENBO 191350Z 13009KT 9999 FEW020 SCT060 BKN080 07/06 Q1031 NOSIG
Conditions at: ENBO (BODO VI (CIV/MIL, NO) observed 1350 UTC 19 April 2019
Temperature: 7.0°C (45°F)
Dewpoint: 6.0°C (43°F) [RH = 93%]
Pressure (altimeter): 30.44 inches Hg (1031.0 mb)
Winds: from the SE (130 degrees) at 10 MPH (9 knots; 4.6 m/s)
Visibility: 6 or more miles (10+ km)
Ceiling: 8000 feet AGL
Clouds: few clouds at 2000 feet AGL
scattered clouds at 6000 feet AGL
broken clouds at 8000 feet AGL
Weather: no significant weather observed at this time

METAR text: ENBO 191320Z 12008KT 9999 FEW020 SCT060 BKN080 08/06 Q1031 NOSIG
Conditions at: ENBO (BODO VI (CIV/MIL, NO) observed 1320 UTC 19 April 2019
Temperature: 8.0°C (46°F)
Dewpoint: 6.0°C (43°F) [RH = 87%]
Pressure (altimeter): 30.44 inches Hg (1031.0 mb)
Winds: from the ESE (120 degrees) at 9 MPH (8 knots; 4.1 m/s)
Visibility: 6 or more miles (10+ km)
Ceiling: 8000 feet AGL
Clouds: few clouds at 2000 feet AGL
scattered clouds at 6000 feet AGL
broken clouds at 8000 feet AGL
Weather: no significant weather observed at this time

METAR text: ENBO 191250Z 12007KT 9999 FEW010 BKN080 07/06 Q1031 BECMG 23015KT
Conditions at: ENBO (BODO VI (CIV/MIL, NO) observed 1250 UTC 19 April 2019
Temperature: 7.0°C (45°F)
Dewpoint: 6.0°C (43°F) [RH = 93%]
Pressure (altimeter): 30.44 inches Hg (1031.0 mb)
Winds: from the ESE (120 degrees) at 8 MPH (7 knots; 3.6 m/s)
Visibility: 6 or more miles (10+ km)
Ceiling: 8000 feet AGL
Clouds: few clouds at 1000 feet AGL
broken clouds at 8000 feet AGL
Weather: no significant weather observed at this time

METAR text: ENBO 191220Z 12010KT 9999 FEW010 BKN065 07/06 Q1031 NOSIG
Conditions at: ENBO (BODO VI (CIV/MIL, NO) observed 1220 UTC 19 April 2019
Temperature: 7.0°C (45°F)
Dewpoint: 6.0°C (43°F) [RH = 93%]
Pressure (altimeter): 30.44 inches Hg (1031.0 mb)
Winds: from the ESE (120 degrees) at 12 MPH (10 knots; 5.1 m/s)
Visibility: 6 or more miles (10+ km)
Ceiling: 6500 feet AGL
Clouds: few clouds at 1000 feet AGL
broken clouds at 6500 feet AGL
Weather: no significant weather observed at this time

METAR text: ENBO 191150Z 12013KT 9999 FEW010 BKN080 07/06 Q1031 NOSIG
Conditions at: ENBO (BODO VI (CIV/MIL, NO) observed 1150 UTC 19 April 2019
Temperature: 7.0°C (45°F)
Dewpoint: 6.0°C (43°F) [RH = 93%]
Pressure (altimeter): 30.44 inches Hg (1031.0 mb)
Winds: from the ESE (120 degrees) at 15 MPH (13 knots; 6.7 m/s)
Visibility: 6 or more miles (10+ km)
Ceiling: 8000 feet AGL
Clouds: few clouds at 1000 feet AGL
broken clouds at 8000 feet AGL
Weather: no significant weather observed at this time

METAR text: ENBO 191120Z 12013KT 9999 FEW008 BKN070 07/05 Q1031 NOSIG
Conditions at: ENBO (BODO VI (CIV/MIL, NO) observed 1120 UTC 19 April 2019
Temperature: 7.0°C (45°F)
Dewpoint: 5.0°C (41°F) [RH = 87%]
Pressure (altimeter): 30.44 inches Hg (1031.0 mb)
Winds: from the ESE (120 degrees) at 15 MPH (13 knots; 6.7 m/s)
Visibility: 6 or more miles (10+ km)
Ceiling: 7000 feet AGL
Clouds: few clouds at 800 feet AGL
broken clouds at 7000 feet AGL
Weather: no significant weather observed at this time

METAR text: ENBO 191050Z 11013KT 9999 FEW007 BKN070 06/05 Q1031 TEMPO 23015KT
Conditions at: ENBO (BODO VI (CIV/MIL, NO) observed 1050 UTC 19 April 2019
Temperature: 6.0°C (43°F)
Dewpoint: 5.0°C (41°F) [RH = 93%]
Pressure (altimeter): 30.44 inches Hg (1031.0 mb)
Winds: from the ESE (110 degrees) at 15 MPH (13 knots; 6.7 m/s)
Visibility: 6 or more miles (10+ km)
Ceiling: 7000 feet AGL
Clouds: few clouds at 700 feet AGL
broken clouds at 7000 feet AGL
Weather: no significant weather observed at this time

METAR text: ENBO 191020Z 12014KT 9999 -RADZ FEW007 BKN020 06/05 Q1031 TEMPO 23015KT RADZ BKN012
Conditions at: ENBO (BODO VI (CIV/MIL, NO) observed 1020 UTC 19 April 2019
Temperature: 6.0°C (43°F)
Dewpoint: 5.0°C (41°F) [RH = 93%]
Pressure (altimeter): 30.44 inches Hg (1031.0 mb)
Winds: from the ESE (120 degrees) at 16 MPH (14 knots; 7.2 m/s)
Visibility: 6 or more miles (10+ km)
Ceiling: 2000 feet AGL
Clouds: few clouds at 700 feet AGL
broken clouds at 2000 feet AGL
Weather: -RA -DZ  (light rain, light drizzle)

METAR text: ENBO 190950Z 11014KT 9999 -RA FEW007 BKN020 06/05 Q1031 TEMPO 23015KT RADZ BKN012
Conditions at: ENBO (BODO VI (CIV/MIL, NO) observed 0950 UTC 19 April 2019
Temperature: 6.0°C (43°F)
Dewpoint: 5.0°C (41°F) [RH = 93%]
Pressure (altimeter): 30.44 inches Hg (1031.0 mb)
Winds: from the ESE (110 degrees) at 16 MPH (14 knots; 7.2 m/s)
Visibility: 6 or more miles (10+ km)
Ceiling: 2000 feet AGL
Clouds: few clouds at 700 feet AGL
broken clouds at 2000 feet AGL
Weather: -RA  (light rain)

METAR text: ENBO 190920Z 12012KT 9999 -RADZ FEW007 BKN022 06/05 Q1032 TEMPO 23015KT RADZ BKN012
Conditions at: ENBO (BODO VI (CIV/MIL, NO) observed 0920 UTC 19 April 2019
Temperature: 6.0°C (43°F)
Dewpoint: 5.0°C (41°F) [RH = 93%]
Pressure (altimeter): 30.47 inches Hg (1032.0 mb)
Winds: from the ESE (120 degrees) at 14 MPH (12 knots; 6.2 m/s)
Visibility: 6 or more miles (10+ km)
Ceiling: 2200 feet AGL
Clouds: few clouds at 700 feet AGL
broken clouds at 2200 feet AGL
Weather: -RA -DZ  (light rain, light drizzle)

METAR text: ENBO 190850Z 12012KT 9999 -RADZ FEW010 BKN022 05/05 Q1032 TEMPO 23015KT RADZ BKN012
Conditions at: ENBO (BODO VI (CIV/MIL, NO) observed 0850 UTC 19 April 2019
Temperature: 5.0°C (41°F)
Dewpoint: 5.0°C (41°F) [RH = 100%]
Pressure (altimeter): 30.47 inches Hg (1032.0 mb)
Winds: from the ESE (120 degrees) at 14 MPH (12 knots; 6.2 m/s)
Visibility: 6 or more miles (10+ km)
Ceiling: 2200 feet AGL
Clouds: few clouds at 1000 feet AGL
broken clouds at 2200 feet AGL
Weather: -RA -DZ  (light rain, light drizzle)

METAR text: ENBO 190820Z 12010KT 9999 -RADZ FEW010 BKN030 05/04 Q1032 TEMPO 23015KT RADZ BKN012
Conditions at: ENBO (BODO VI (CIV/MIL, NO) observed 0820 UTC 19 April 2019
Temperature: 5.0°C (41°F)
Dewpoint: 4.0°C (39°F) [RH = 93%]
Pressure (altimeter): 30.47 inches Hg (1032.0 mb)
Winds: from the ESE (120 degrees) at 12 MPH (10 knots; 5.1 m/s)
Visibility: 6 or more miles (10+ km)
Ceiling: 3000 feet AGL
Clouds: few clouds at 1000 feet AGL
broken clouds at 3000 feet AGL
Weather: -RA -DZ  (light rain, light drizzle)

METAR text: ENBO 190750Z 11014KT 9999 -RADZ FEW007 BKN030 05/04 Q1032 TEMPO 23015KT RA BKN012
Conditions at: ENBO (BODO VI (CIV/MIL, NO) observed 0750 UTC 19 April 2019
Temperature: 5.0°C (41°F)
Dewpoint: 4.0°C (39°F) [RH = 93%]
Pressure (altimeter): 30.47 inches Hg (1032.0 mb)
Winds: from the ESE (110 degrees) at 16 MPH (14 knots; 7.2 m/s)
Visibility: 6 or more miles (10+ km)
Ceiling: 3000 feet AGL
Clouds: few clouds at 700 feet AGL
broken clouds at 3000 feet AGL
Weather: -RA -DZ  (light rain, light drizzle)

METAR text: ENBO 190720Z 12012KT 9999 -RA FEW007 BKN040 05/04 Q1032 TEMPO 23015KT RA BKN012
Conditions at: ENBO (BODO VI (CIV/MIL, NO) observed 0720 UTC 19 April 2019
Temperature: 5.0°C (41°F)
Dewpoint: 4.0°C (39°F) [RH = 93%]
Pressure (altimeter): 30.47 inches Hg (1032.0 mb)
Winds: from the ESE (120 degrees) at 14 MPH (12 knots; 6.2 m/s)
Visibility: 6 or more miles (10+ km)
Ceiling: 4000 feet AGL
Clouds: few clouds at 700 feet AGL
broken clouds at 4000 feet AGL
Weather: -RA  (light rain)

METAR text: ENBO 190650Z 12012KT 9999 -RADZ FEW007 SCT020 BKN030 05/04 Q1031 TEMPO 23015KT RA BKN012
Conditions at: ENBO (BODO VI (CIV/MIL, NO) observed 0650 UTC 19 April 2019
Temperature: 5.0°C (41°F)
Dewpoint: 4.0°C (39°F) [RH = 93%]
Pressure (altimeter): 30.44 inches Hg (1031.0 mb)
Winds: from the ESE (120 degrees) at 14 MPH (12 knots; 6.2 m/s)
Visibility: 6 or more miles (10+ km)
Ceiling: 3000 feet AGL
Clouds: few clouds at 700 feet AGL
scattered clouds at 2000 feet AGL
broken clouds at 3000 feet AGL
Weather: -RA -DZ  (light rain, light drizzle)

METAR text: ENBO 190620Z 11010KT 9999 -RADZ FEW007 SCT020 BKN035 05/04 Q1032 TEMPO 23015KT RA BKN012
Conditions at: ENBO (BODO VI (CIV/MIL, NO) observed 0620 UTC 19 April 2019
Temperature: 5.0°C (41°F)
Dewpoint: 4.0°C (39°F) [RH = 93%]
Pressure (altimeter): 30.47 inches Hg (1032.0 mb)
Winds: from the ESE (110 degrees) at 12 MPH (10 knots; 5.1 m/s)
Visibility: 6 or more miles (10+ km)
Ceiling: 3500 feet AGL
Clouds: few clouds at 700 feet AGL
scattered clouds at 2000 feet AGL
broken clouds at 3500 feet AGL
Weather: -RA -DZ  (light rain, light drizzle)

METAR text: ENBO 190550Z 12010KT 9999 -RA FEW007 SCT015 BKN020 05/04 Q1031 TEMPO 23015KT RA BKN012
Conditions at: ENBO (BODO VI (CIV/MIL, NO) observed 0550 UTC 19 April 2019
Temperature: 5.0°C (41°F)
Dewpoint: 4.0°C (39°F) [RH = 93%]
Pressure (altimeter): 30.44 inches Hg (1031.0 mb)
Winds: from the ESE (120 degrees) at 12 MPH (10 knots; 5.1 m/s)
Visibility: 6 or more miles (10+ km)
Ceiling: 2000 feet AGL
Clouds: few clouds at 700 feet AGL
scattered clouds at 1500 feet AGL
broken clouds at 2000 feet AGL
Weather: -RA  (light rain)

METAR text: ENBO 190520Z 13004KT 9999 -RA FEW007 SCT020 BKN030 05/04 Q1032 TEMPO 23015KT RA BKN012
Conditions at: ENBO (BODO VI (CIV/MIL, NO) observed 0520 UTC 19 April 2019
Temperature: 5.0°C (41°F)
Dewpoint: 4.0°C (39°F) [RH = 93%]
Pressure (altimeter): 30.47 inches Hg (1032.0 mb)
Winds: from the SE (130 degrees) at 5 MPH (4 knots; 2.1 m/s)
Visibility: 6 or more miles (10+ km)
Ceiling: 3000 feet AGL
Clouds: few clouds at 700 feet AGL
scattered clouds at 2000 feet AGL
broken clouds at 3000 feet AGL
Weather: -RA  (light rain)

METAR text: ENBO 190450Z 12009KT 9999 -RA FEW007 BKN025 04/04 Q1031 TEMPO 23015KT RA BKN012
Conditions at: ENBO (BODO VI (CIV/MIL, NO) observed 0450 UTC 19 April 2019
Temperature: 4.0°C (39°F)
Dewpoint: 4.0°C (39°F) [RH = 100%]
Pressure (altimeter): 30.44 inches Hg (1031.0 mb)
Winds: from the ESE (120 degrees) at 10 MPH (9 knots; 4.6 m/s)
Visibility: 6 or more miles (10+ km)
Ceiling: 2500 feet AGL
Clouds: few clouds at 700 feet AGL
broken clouds at 2500 feet AGL
Weather: -RA  (light rain)

METAR text: ENBO 190420Z 12009KT 9999 -RA FEW010 BKN025 04/04 Q1031 TEMPO 23015KT RA BKN012
Conditions at: ENBO (BODO VI (CIV/MIL, NO) observed 0420 UTC 19 April 2019
Temperature: 4.0°C (39°F)
Dewpoint: 4.0°C (39°F) [RH = 100%]
Pressure (altimeter): 30.44 inches Hg (1031.0 mb)
Winds: from the ESE (120 degrees) at 10 MPH (9 knots; 4.6 m/s)
Visibility: 6 or more miles (10+ km)
Ceiling: 2500 feet AGL
Clouds: few clouds at 1000 feet AGL
broken clouds at 2500 feet AGL
Weather: -RA  (light rain)

METAR text: ENBO 190350Z 13006KT 9999 -RA FEW010 BKN025 05/04 Q1031 TEMPO 23015KT RA BKN012
Conditions at: ENBO (BODO VI (CIV/MIL, NO) observed 0350 UTC 19 April 2019
Temperature: 5.0°C (41°F)
Dewpoint: 4.0°C (39°F) [RH = 93%]
Pressure (altimeter): 30.44 inches Hg (1031.0 mb)
Winds: from the SE (130 degrees) at 7 MPH (6 knots; 3.1 m/s)
Visibility: 6 or more miles (10+ km)
Ceiling: 2500 feet AGL
Clouds: few clouds at 1000 feet AGL
broken clouds at 2500 feet AGL
Weather: -RA  (light rain)

METAR text: ENBO 190320Z 12008KT 9999 -RA FEW007 BKN025 05/04 Q1031
Conditions at: ENBO (BODO VI (CIV/MIL, NO) observed 0320 UTC 19 April 2019
Temperature: 5.0°C (41°F)
Dewpoint: 4.0°C (39°F) [RH = 93%]
Pressure (altimeter): 30.44 inches Hg (1031.0 mb)
Winds: from the ESE (120 degrees) at 9 MPH (8 knots; 4.1 m/s)
Visibility: 6 or more miles (10+ km)
Ceiling: 2500 feet AGL
Clouds: few clouds at 700 feet AGL
broken clouds at 2500 feet AGL
Weather: -RA  (light rain)

METAR text: ENBO 190250Z 14005KT 9999 -RA SCT010 BKN025 05/04 Q1031
Conditions at: ENBO (BODO VI (CIV/MIL, NO) observed 0250 UTC 19 April 2019
Temperature: 5.0°C (41°F)
Dewpoint: 4.0°C (39°F) [RH = 93%]
Pressure (altimeter): 30.44 inches Hg (1031.0 mb)
Winds: from the SE (140 degrees) at 6 MPH (5 knots; 2.6 m/s)
Visibility: 6 or more miles (10+ km)
Ceiling: 2500 feet AGL
Clouds: scattered clouds at 1000 feet AGL
broken clouds at 2500 feet AGL
Weather: -RA  (light rain)

METAR text: ENBO 190150Z 11008KT 9999 -RA FEW007 SCT025 BKN035 05/04 Q1031
Conditions at: ENBO (BODO VI (CIV/MIL, NO) observed 0150 UTC 19 April 2019
Temperature: 5.0°C (41°F)
Dewpoint: 4.0°C (39°F) [RH = 93%]
Pressure (altimeter): 30.44 inches Hg (1031.0 mb)
Winds: from the ESE (110 degrees) at 9 MPH (8 knots; 4.1 m/s)
Visibility: 6 or more miles (10+ km)
Ceiling: 3500 feet AGL
Clouds: few clouds at 700 feet AGL
scattered clouds at 2500 feet AGL
broken clouds at 3500 feet AGL
Weather: -RA  (light rain)

METAR text: ENBO 190050Z 16005KT 9999 -RA FEW007 BKN025 05/04 Q1031
Conditions at: ENBO (BODO VI (CIV/MIL, NO) observed 0050 UTC 19 April 2019
Temperature: 5.0°C (41°F)
Dewpoint: 4.0°C (39°F) [RH = 93%]
Pressure (altimeter): 30.44 inches Hg (1031.0 mb)
Winds: from the SSE (160 degrees) at 6 MPH (5 knots; 2.6 m/s)
Visibility: 6 or more miles (10+ km)
Ceiling: 2500 feet AGL
Clouds: few clouds at 700 feet AGL
broken clouds at 2500 feet AGL
Weather: -RA  (light rain)

METAR text: ENBO 182350Z 13005KT 9999 -RA FEW007 BKN025 05/05 Q1032
Conditions at: ENBO (BODO VI (CIV/MIL, NO) observed 2350 UTC 18 April 2019
Temperature: 5.0°C (41°F)
Dewpoint: 5.0°C (41°F) [RH = 100%]
Pressure (altimeter): 30.47 inches Hg (1032.0 mb)
Winds: from the SE (130 degrees) at 6 MPH (5 knots; 2.6 m/s)
Visibility: 6 or more miles (10+ km)
Ceiling: 2500 feet AGL
Clouds: few clouds at 700 feet AGL
broken clouds at 2500 feet AGL
Weather: -RA  (light rain)

METAR text: ENBO 182250Z 13006KT 9999 -RA FEW007 SCT015 BKN025 05/05 Q1032
Conditions at: ENBO (BODO VI (CIV/MIL, NO) observed 2250 UTC 18 April 2019
Temperature: 5.0°C (41°F)
Dewpoint: 5.0°C (41°F) [RH = 100%]
Pressure (altimeter): 30.47 inches Hg (1032.0 mb)
Winds: from the SE (130 degrees) at 7 MPH (6 knots; 3.1 m/s)
Visibility: 6 or more miles (10+ km)
Ceiling: 2500 feet AGL
Clouds: few clouds at 700 feet AGL
scattered clouds at 1500 feet AGL
broken clouds at 2500 feet AGL
Weather: -RA  (light rain)

METAR text: ENBO 182150Z 24006KT 9999 -RA FEW007 SCT012 BKN020 06/05 Q1032 TEMPO BKN012
Conditions at: ENBO (BODO VI (CIV/MIL, NO) observed 2150 UTC 18 April 2019
Temperature: 6.0°C (43°F)
Dewpoint: 5.0°C (41°F) [RH = 93%]
Pressure (altimeter): 30.47 inches Hg (1032.0 mb)
Winds: from the WSW (240 degrees) at 7 MPH (6 knots; 3.1 m/s)
Visibility: 6 or more miles (10+ km)
Ceiling: 2000 feet AGL
Clouds: few clouds at 700 feet AGL
scattered clouds at 1200 feet AGL
broken clouds at 2000 feet AGL
Weather: -RA  (light rain)

METAR text: ENBO 182120Z 26007KT 9999 -RA FEW012 BKN028 06/05 Q1032 TEMPO BKN014
Conditions at: ENBO (BODO VI (CIV/MIL, NO) observed 2120 UTC 18 April 2019
Temperature: 6.0°C (43°F)
Dewpoint: 5.0°C (41°F) [RH = 93%]
Pressure (altimeter): 30.47 inches Hg (1032.0 mb)
Winds: from the W (260 degrees) at 8 MPH (7 knots; 3.6 m/s)
Visibility: 6 or more miles (10+ km)
Ceiling: 2800 feet AGL
Clouds: few clouds at 1200 feet AGL
broken clouds at 2800 feet AGL
Weather: -RA  (light rain)

METAR text: ENBO 182050Z 24009KT 9999 -RADZ FEW012 SCT018 BKN030 06/05 Q1032 TEMPO BKN014
Conditions at: ENBO (BODO VI (CIV/MIL, NO) observed 2050 UTC 18 April 2019
Temperature: 6.0°C (43°F)
Dewpoint: 5.0°C (41°F) [RH = 93%]
Pressure (altimeter): 30.47 inches Hg (1032.0 mb)
Winds: from the WSW (240 degrees) at 10 MPH (9 knots; 4.6 m/s)
Visibility: 6 or more miles (10+ km)
Ceiling: 3000 feet AGL
Clouds: few clouds at 1200 feet AGL
scattered clouds at 1800 feet AGL
broken clouds at 3000 feet AGL
Weather: -RA -DZ  (light rain, light drizzle)

METAR text: ENBO 182020Z 24015KT 9999 -DZ FEW012 SCT018 BKN030 06/05 Q1032 TEMPO BKN014
Conditions at: ENBO (BODO VI (CIV/MIL, NO) observed 2020 UTC 18 April 2019
Temperature: 6.0°C (43°F)
Dewpoint: 5.0°C (41°F) [RH = 93%]
Pressure (altimeter): 30.47 inches Hg (1032.0 mb)
Winds: from the WSW (240 degrees) at 17 MPH (15 knots; 7.7 m/s)
Visibility: 6 or more miles (10+ km)
Ceiling: 3000 feet AGL
Clouds: few clouds at 1200 feet AGL
scattered clouds at 1800 feet AGL
broken clouds at 3000 feet AGL
Weather: -DZ  (light drizzle)

METAR text: ENBO 181950Z 25013KT 9999 -DZ FEW012 SCT018 BKN025 06/05 Q1032 TEMPO BKN014
Conditions at: ENBO (BODO VI (CIV/MIL, NO) observed 1950 UTC 18 April 2019
Temperature: 6.0°C (43°F)
Dewpoint: 5.0°C (41°F) [RH = 93%]
Pressure (altimeter): 30.47 inches Hg (1032.0 mb)
Winds: from the WSW (250 degrees) at 15 MPH (13 knots; 6.7 m/s)
Visibility: 6 or more miles (10+ km)
Ceiling: 2500 feet AGL
Clouds: few clouds at 1200 feet AGL
scattered clouds at 1800 feet AGL
broken clouds at 2500 feet AGL
Weather: -DZ  (light drizzle)

METAR text: ENBO 181920Z 24013KT 9999 FEW015 BKN035 06/05 Q1032 NOSIG
Conditions at: ENBO (BODO VI (CIV/MIL, NO) observed 1920 UTC 18 April 2019
Temperature: 6.0°C (43°F)
Dewpoint: 5.0°C (41°F) [RH = 93%]
Pressure (altimeter): 30.47 inches Hg (1032.0 mb)
Winds: from the WSW (240 degrees) at 15 MPH (13 knots; 6.7 m/s)
Visibility: 6 or more miles (10+ km)
Ceiling: 3500 feet AGL
Clouds: few clouds at 1500 feet AGL
broken clouds at 3500 feet AGL
Weather: no significant weather observed at this time

METAR text: ENBO 181850Z 24015KT 9999 FEW015 SCT025 BKN040 07/04 Q1032 NOSIG
Conditions at: ENBO (BODO VI (CIV/MIL, NO) observed 1850 UTC 18 April 2019
Temperature: 7.0°C (45°F)
Dewpoint: 4.0°C (39°F) [RH = 81%]
Pressure (altimeter): 30.47 inches Hg (1032.0 mb)
Winds: from the WSW (240 degrees) at 17 MPH (15 knots; 7.7 m/s)
Visibility: 6 or more miles (10+ km)
Ceiling: 4000 feet AGL
Clouds: few clouds at 1500 feet AGL
scattered clouds at 2500 feet AGL
broken clouds at 4000 feet AGL
Weather: no significant weather observed at this time

METAR text: ENBO 181820Z 25018KT 9999 FEW015 SCT025 BKN040 07/04 Q1032 NOSIG
Conditions at: ENBO (BODO VI (CIV/MIL, NO) observed 1820 UTC 18 April 2019
Temperature: 7.0°C (45°F)
Dewpoint: 4.0°C (39°F) [RH = 81%]
Pressure (altimeter): 30.47 inches Hg (1032.0 mb)
Winds: from the WSW (250 degrees) at 21 MPH (18 knots; 9.3 m/s)
Visibility: 6 or more miles (10+ km)
Ceiling: 4000 feet AGL
Clouds: few clouds at 1500 feet AGL
scattered clouds at 2500 feet AGL
broken clouds at 4000 feet AGL
Weather: no significant weather observed at this time

METAR text: ENBO 181750Z 25019KT 9999 FEW015 SCT025 BKN030 07/05 Q1032 NOSIG
Conditions at: ENBO (BODO VI (CIV/MIL, NO) observed 1750 UTC 18 April 2019
Temperature: 7.0°C (45°F)
Dewpoint: 5.0°C (41°F) [RH = 87%]
Pressure (altimeter): 30.47 inches Hg (1032.0 mb)
Winds: from the WSW (250 degrees) at 22 MPH (19 knots; 9.8 m/s)
Visibility: 6 or more miles (10+ km)
Ceiling: 3000 feet AGL
Clouds: few clouds at 1500 feet AGL
scattered clouds at 2500 feet AGL
broken clouds at 3000 feet AGL
Weather: no significant weather observed at this time

METAR text: ENBO 181720Z 25018KT 9999 FEW015 SCT025 BKN035 07/04 Q1032 NOSIG
Conditions at: ENBO (BODO VI (CIV/MIL, NO) observed 1720 UTC 18 April 2019
Temperature: 7.0°C (45°F)
Dewpoint: 4.0°C (39°F) [RH = 81%]
Pressure (altimeter): 30.47 inches Hg (1032.0 mb)
Winds: from the WSW (250 degrees) at 21 MPH (18 knots; 9.3 m/s)
Visibility: 6 or more miles (10+ km)
Ceiling: 3500 feet AGL
Clouds: few clouds at 1500 feet AGL
scattered clouds at 2500 feet AGL
broken clouds at 3500 feet AGL
Weather: no significant weather observed at this time

METAR text: ENBO 181650Z 25019KT 9999 FEW015 SCT025 BKN030 07/04 Q1032 NOSIG
Conditions at: ENBO (BODO VI (CIV/MIL, NO) observed 1650 UTC 18 April 2019
Temperature: 7.0°C (45°F)
Dewpoint: 4.0°C (39°F) [RH = 81%]
Pressure (altimeter): 30.47 inches Hg (1032.0 mb)
Winds: from the WSW (250 degrees) at 22 MPH (19 knots; 9.8 m/s)
Visibility: 6 or more miles (10+ km)
Ceiling: 3000 feet AGL
Clouds: few clouds at 1500 feet AGL
scattered clouds at 2500 feet AGL
broken clouds at 3000 feet AGL
Weather: no significant weather observed at this time

METAR text: ENBO 181620Z 25019KT 9999 FEW015 SCT025 BKN030 08/04 Q1032 NOSIG
Conditions at: ENBO (BODO VI (CIV/MIL, NO) observed 1620 UTC 18 April 2019
Temperature: 8.0°C (46°F)
Dewpoint: 4.0°C (39°F) [RH = 76%]
Pressure (altimeter): 30.47 inches Hg (1032.0 mb)
Winds: from the WSW (250 degrees) at 22 MPH (19 knots; 9.8 m/s)
Visibility: 6 or more miles (10+ km)
Ceiling: 3000 feet AGL
Clouds: few clouds at 1500 feet AGL
scattered clouds at 2500 feet AGL
broken clouds at 3000 feet AGL
Weather: no significant weather observed at this time

METAR text: ENBO 181550Z 25020KT 9999 FEW015 SCT025 BKN030 08/04 Q1032 NOSIG
Conditions at: ENBO (BODO VI (CIV/MIL, NO) observed 1550 UTC 18 April 2019
Temperature: 8.0°C (46°F)
Dewpoint: 4.0°C (39°F) [RH = 76%]
Pressure (altimeter): 30.47 inches Hg (1032.0 mb)
Winds: from the WSW (250 degrees) at 23 MPH (20 knots; 10.3 m/s)
Visibility: 6 or more miles (10+ km)
Ceiling: 3000 feet AGL
Clouds: few clouds at 1500 feet AGL
scattered clouds at 2500 feet AGL
broken clouds at 3000 feet AGL
Weather: no significant weather observed at this time

METAR text: ENBO 181450Z 25020KT 9999 FEW020 BKN035 08/04 Q1032 NOSIG
Conditions at: ENBO (BODO VI (CIV/MIL, NO) observed 1450 UTC 18 April 2019
Temperature: 8.0°C (46°F)
Dewpoint: 4.0°C (39°F) [RH = 76%]
Pressure (altimeter): 30.47 inches Hg (1032.0 mb)
Winds: from the WSW (250 degrees) at 23 MPH (20 knots; 10.3 m/s)
Visibility: 6 or more miles (10+ km)
Ceiling: 3500 feet AGL
Clouds: few clouds at 2000 feet AGL
broken clouds at 3500 feet AGL
Weather: no significant weather observed at this time

METAR text: ENBO 181420Z 26020KT 9999 FEW020 SCT025 BKN045 08/04 Q1032 NOSIG
Conditions at: ENBO (BODO VI (CIV/MIL, NO) observed 1420 UTC 18 April 2019
Temperature: 8.0°C (46°F)
Dewpoint: 4.0°C (39°F) [RH = 76%]
Pressure (altimeter): 30.47 inches Hg (1032.0 mb)
Winds: from the W (260 degrees) at 23 MPH (20 knots; 10.3 m/s)
Visibility: 6 or more miles (10+ km)
Ceiling: 4500 feet AGL
Clouds: few clouds at 2000 feet AGL
scattered clouds at 2500 feet AGL
broken clouds at 4500 feet AGL
Weather: no significant weather observed at this time

METAR text: ENBO 181350Z 25020KT 9999 FEW025 BKN045 08/03 Q1031 NOSIG
Conditions at: ENBO (BODO VI (CIV/MIL, NO) observed 1350 UTC 18 April 2019
Temperature: 8.0°C (46°F)
Dewpoint: 3.0°C (37°F) [RH = 71%]
Pressure (altimeter): 30.44 inches Hg (1031.0 mb)
Winds: from the WSW (250 degrees) at 23 MPH (20 knots; 10.3 m/s)
Visibility: 6 or more miles (10+ km)
Ceiling: 4500 feet AGL
Clouds: few clouds at 2500 feet AGL
broken clouds at 4500 feet AGL
Weather: no significant weather observed at this time

METAR text: ENBO 181320Z 26005KT 9999 -RA FEW025 BKN045 09/M00 Q1032 NOSIG
Conditions at: ENBO (BODO VI (CIV/MIL, NO) observed 1320 UTC 18 April 2019
Temperature: 9.0°C (48°F)
Dewpoint: 0.0°C (32°F) [RH = 53%]
Pressure (altimeter): 30.47 inches Hg (1032.0 mb)
Winds: from the W (260 degrees) at 6 MPH (5 knots; 2.6 m/s)
Visibility: 6 or more miles (10+ km)
Ceiling: 4500 feet AGL
Clouds: few clouds at 2500 feet AGL
broken clouds at 4500 feet AGL
Weather: -RA  (light rain)

METAR text: ENBO 181250Z 21005KT 120V260 9999 -RA FEW025 SCT040 BKN060 09/M03 Q1032 NOSIG
Conditions at: ENBO (BODO VI (CIV/MIL, NO) observed 1250 UTC 18 April 2019
Temperature: 9.0°C (48°F)
Dewpoint: -3.0°C (27°F) [RH = 43%]
Pressure (altimeter): 30.47 inches Hg (1032.0 mb)
Winds: from the SSW (210 degrees) at 6 MPH (5 knots; 2.6 m/s)
Visibility: 6 or more miles (10+ km)
Ceiling: 6000 feet AGL
Clouds: few clouds at 2500 feet AGL
scattered clouds at 4000 feet AGL
broken clouds at 6000 feet AGL
Weather: -RA  (light rain)

METAR text: ENBO 181220Z 12005KT 9999 FEW030 SCT040 BKN060 09/M03 Q1032 NOSIG
Conditions at: ENBO (BODO VI (CIV/MIL, NO) observed 1220 UTC 18 April 2019
Temperature: 9.0°C (48°F)
Dewpoint: -3.0°C (27°F) [RH = 43%]
Pressure (altimeter): 30.47 inches Hg (1032.0 mb)
Winds: from the ESE (120 degrees) at 6 MPH (5 knots; 2.6 m/s)
Visibility: 6 or more miles (10+ km)
Ceiling: 6000 feet AGL
Clouds: few clouds at 3000 feet AGL
scattered clouds at 4000 feet AGL
broken clouds at 6000 feet AGL
Weather: no significant weather observed at this time

METAR text: ENBO 181150Z VRB02KT 9999 FEW030 SCT040 BKN060 09/M04 Q1033 NOSIG
Conditions at: ENBO (BODO VI (CIV/MIL, NO) observed 1150 UTC 18 April 2019
Temperature: 9.0°C (48°F)
Dewpoint: -4.0°C (25°F) [RH = 40%]
Pressure (altimeter): 30.50 inches Hg (1033.0 mb)
Winds: variable direction winds at 2 MPH (2 knots; 1.0 m/s)
Visibility: 6 or more miles (10+ km)
Ceiling: 6000 feet AGL
Clouds: few clouds at 3000 feet AGL
scattered clouds at 4000 feet AGL
broken clouds at 6000 feet AGL
Weather: no significant weather observed at this time

METAR text: ENBO 181120Z 10006KT 9999 FEW050 BKN060 09/M03 Q1033 NOSIG
Conditions at: ENBO (BODO VI (CIV/MIL, NO) observed 1120 UTC 18 April 2019
Temperature: 9.0°C (48°F)
Dewpoint: -3.0°C (27°F) [RH = 43%]
Pressure (altimeter): 30.50 inches Hg (1033.0 mb)
Winds: from the E (100 degrees) at 7 MPH (6 knots; 3.1 m/s)
Visibility: 6 or more miles (10+ km)
Ceiling: 6000 feet AGL
Clouds: few clouds at 5000 feet AGL
broken clouds at 6000 feet AGL
Weather: no significant weather observed at this time

METAR text: ENBO 181050Z 11009KT 9999 SCT060 BKN200 09/M03 Q1033 NOSIG
Conditions at: ENBO (BODO VI (CIV/MIL, NO) observed 1050 UTC 18 April 2019
Temperature: 9.0°C (48°F)
Dewpoint: -3.0°C (27°F) [RH = 43%]
Pressure (altimeter): 30.50 inches Hg (1033.0 mb)
Winds: from the ESE (110 degrees) at 10 MPH (9 knots; 4.6 m/s)
Visibility: 6 or more miles (10+ km)
Ceiling: 20000 feet AGL
Clouds: scattered clouds at 6000 feet AGL
broken clouds at 20000 feet AGL
Weather: no significant weather observed at this time

METAR text: ENBO 181020Z 11011KT 9999 SCT060 BKN200 08/M03 Q1033 NOSIG
Conditions at: ENBO (BODO VI (CIV/MIL, NO) observed 1020 UTC 18 April 2019
Temperature: 8.0°C (46°F)
Dewpoint: -3.0°C (27°F) [RH = 46%]
Pressure (altimeter): 30.50 inches Hg (1033.0 mb)
Winds: from the ESE (110 degrees) at 13 MPH (11 knots; 5.7 m/s)
Visibility: 6 or more miles (10+ km)
Ceiling: 20000 feet AGL
Clouds: scattered clouds at 6000 feet AGL
broken clouds at 20000 feet AGL
Weather: no significant weather observed at this time

METAR text: ENBO 180950Z 12011KT CAVOK 08/M03 Q1033 NOSIG
Conditions at: ENBO (BODO VI (CIV/MIL, NO) observed 0950 UTC 18 April 2019
Temperature: 8.0°C (46°F)
Dewpoint: -3.0°C (27°F) [RH = 46%]
Pressure (altimeter): 30.50 inches Hg (1033.0 mb)
Winds: from the ESE (120 degrees) at 13 MPH (11 knots; 5.7 m/s)
Visibility: 6 or more miles (10+ km)
Ceiling: ceiling and visibility are OK
Clouds: unknown
Weather: no significant weather observed at this time

METAR text: ENBO 180920Z 12011KT CAVOK 09/M03 Q1033 NOSIG
Conditions at: ENBO (BODO VI (CIV/MIL, NO) observed 0920 UTC 18 April 2019
Temperature: 9.0°C (48°F)
Dewpoint: -3.0°C (27°F) [RH = 43%]
Pressure (altimeter): 30.50 inches Hg (1033.0 mb)
Winds: from the ESE (120 degrees) at 13 MPH (11 knots; 5.7 m/s)
Visibility: 6 or more miles (10+ km)
Ceiling: ceiling and visibility are OK
Clouds: unknown
Weather: no significant weather observed at this time

METAR text: ENBO 180850Z 09009KT CAVOK 07/M03 Q1034 NOSIG
Conditions at: ENBO (BODO VI (CIV/MIL, NO) observed 0850 UTC 18 April 2019
Temperature: 7.0°C (45°F)
Dewpoint: -3.0°C (27°F) [RH = 49%]
Pressure (altimeter): 30.53 inches Hg (1034.0 mb)
Winds: from the E (90 degrees) at 10 MPH (9 knots; 4.6 m/s)
Visibility: 6 or more miles (10+ km)
Ceiling: ceiling and visibility are OK
Clouds: unknown
Weather: no significant weather observed at this time

METAR text: ENBO 180820Z 10010KT CAVOK 07/M03 Q1034 NOSIG
Conditions at: ENBO (BODO VI (CIV/MIL, NO) observed 0820 UTC 18 April 2019
Temperature: 7.0°C (45°F)
Dewpoint: -3.0°C (27°F) [RH = 49%]
Pressure (altimeter): 30.53 inches Hg (1034.0 mb)
Winds: from the E (100 degrees) at 12 MPH (10 knots; 5.1 m/s)
Visibility: 6 or more miles (10+ km)
Ceiling: ceiling and visibility are OK
Clouds: unknown
Weather: no significant weather observed at this time

METAR text: ENBO 180750Z 10009KT CAVOK 06/M03 Q1034 NOSIG
Conditions at: ENBO (BODO VI (CIV/MIL, NO) observed 0750 UTC 18 April 2019
Temperature: 6.0°C (43°F)
Dewpoint: -3.0°C (27°F) [RH = 52%]
Pressure (altimeter): 30.53 inches Hg (1034.0 mb)
Winds: from the E (100 degrees) at 10 MPH (9 knots; 4.6 m/s)
Visibility: 6 or more miles (10+ km)
Ceiling: ceiling and visibility are OK
Clouds: unknown
Weather: no significant weather observed at this time

METAR text: ENBO 180720Z 09009KT CAVOK 06/M04 Q1034 NOSIG
Conditions at: ENBO (BODO VI (CIV/MIL, NO) observed 0720 UTC 18 April 2019
Temperature: 6.0°C (43°F)
Dewpoint: -4.0°C (25°F) [RH = 49%]
Pressure (altimeter): 30.53 inches Hg (1034.0 mb)
Winds: from the E (90 degrees) at 10 MPH (9 knots; 4.6 m/s)
Visibility: 6 or more miles (10+ km)
Ceiling: ceiling and visibility are OK
Clouds: unknown
Weather: no significant weather observed at this time

METAR text: ENBO 180650Z 09009KT CAVOK 06/M04 Q1034 NOSIG
Conditions at: ENBO (BODO VI (CIV/MIL, NO) observed 0650 UTC 18 April 2019
Temperature: 6.0°C (43°F)
Dewpoint: -4.0°C (25°F) [RH = 49%]
Pressure (altimeter): 30.53 inches Hg (1034.0 mb)
Winds: from the E (90 degrees) at 10 MPH (9 knots; 4.6 m/s)
Visibility: 6 or more miles (10+ km)
Ceiling: ceiling and visibility are OK
Clouds: unknown
Weather: no significant weather observed at this time

METAR text: ENBO 180620Z 10010KT CAVOK 05/M04 Q1034 NOSIG
Conditions at: ENBO (BODO VI (CIV/MIL, NO) observed 0620 UTC 18 April 2019
Temperature: 5.0°C (41°F)
Dewpoint: -4.0°C (25°F) [RH = 52%]
Pressure (altimeter): 30.53 inches Hg (1034.0 mb)
Winds: from the E (100 degrees) at 12 MPH (10 knots; 5.1 m/s)
Visibility: 6 or more miles (10+ km)
Ceiling: ceiling and visibility are OK
Clouds: unknown
Weather: no significant weather observed at this time

METAR text: ENBO 180550Z 09009KT CAVOK 05/M05 Q1034 NOSIG
Conditions at: ENBO (BODO VI (CIV/MIL, NO) observed 0550 UTC 18 April 2019
Temperature: 5.0°C (41°F)
Dewpoint: -5.0°C (23°F) [RH = 48%]
Pressure (altimeter): 30.53 inches Hg (1034.0 mb)
Winds: from the E (90 degrees) at 10 MPH (9 knots; 4.6 m/s)
Visibility: 6 or more miles (10+ km)
Ceiling: ceiling and visibility are OK
Clouds: unknown
Weather: no significant weather observed at this time

METAR text: ENBO 180520Z 08008KT CAVOK 04/M06 Q1034 NOSIG
Conditions at: ENBO (BODO VI (CIV/MIL, NO) observed 0520 UTC 18 April 2019
Temperature: 4.0°C (39°F)
Dewpoint: -6.0°C (21°F) [RH = 48%]
Pressure (altimeter): 30.53 inches Hg (1034.0 mb)
Winds: from the E (80 degrees) at 9 MPH (8 knots; 4.1 m/s)
Visibility: 6 or more miles (10+ km)
Ceiling: ceiling and visibility are OK
Clouds: unknown
Weather: no significant weather observed at this time

METAR text: ENBO 180450Z 08007KT CAVOK 04/M05 Q1034 NOSIG
Conditions at: ENBO (BODO VI (CIV/MIL, NO) observed 0450 UTC 18 April 2019
Temperature: 4.0°C (39°F)
Dewpoint: -5.0°C (23°F) [RH = 52%]
Pressure (altimeter): 30.53 inches Hg (1034.0 mb)
Winds: from the E (80 degrees) at 8 MPH (7 knots; 3.6 m/s)
Visibility: 6 or more miles (10+ km)
Ceiling: ceiling and visibility are OK
Clouds: unknown
Weather: no significant weather observed at this time

METAR text: ENBO 180420Z 09008KT CAVOK 03/M05 Q1034
Conditions at: ENBO (BODO VI (CIV/MIL, NO) observed 0420 UTC 18 April 2019
Temperature: 3.0°C (37°F)
Dewpoint: -5.0°C (23°F) [RH = 56%]
Pressure (altimeter): 30.53 inches Hg (1034.0 mb)
Winds: from the E (90 degrees) at 9 MPH (8 knots; 4.1 m/s)
Visibility: 6 or more miles (10+ km)
Ceiling: ceiling and visibility are OK
Clouds: unknown
Weather: no significant weather observed at this time

METAR text: ENBO 180350Z 09008KT CAVOK 03/M05 Q1034
Conditions at: ENBO (BODO VI (CIV/MIL, NO) observed 0350 UTC 18 April 2019
Temperature: 3.0°C (37°F)
Dewpoint: -5.0°C (23°F) [RH = 56%]
Pressure (altimeter): 30.53 inches Hg (1034.0 mb)
Winds: from the E (90 degrees) at 9 MPH (8 knots; 4.1 m/s)
Visibility: 6 or more miles (10+ km)
Ceiling: ceiling and visibility are OK
Clouds: unknown
Weather: no significant weather observed at this time

METAR text: ENBO 180320Z 08006KT CAVOK 02/M05 Q1034
Conditions at: ENBO (BODO VI (CIV/MIL, NO) observed 0320 UTC 18 April 2019
Temperature: 2.0°C (36°F)
Dewpoint: -5.0°C (23°F) [RH = 60%]
Pressure (altimeter): 30.53 inches Hg (1034.0 mb)
Winds: from the E (80 degrees) at 7 MPH (6 knots; 3.1 m/s)
Visibility: 6 or more miles (10+ km)
Ceiling: ceiling and visibility are OK
Clouds: unknown
Weather: no significant weather observed at this time

METAR text: ENBO 180250Z 08004KT CAVOK 02/M06 Q1034
Conditions at: ENBO (BODO VI (CIV/MIL, NO) observed 0250 UTC 18 April 2019
Temperature: 2.0°C (36°F)
Dewpoint: -6.0°C (21°F) [RH = 55%]
Pressure (altimeter): 30.53 inches Hg (1034.0 mb)
Winds: from the E (80 degrees) at 5 MPH (4 knots; 2.1 m/s)
Visibility: 6 or more miles (10+ km)
Ceiling: ceiling and visibility are OK
Clouds: unknown
Weather: no significant weather observed at this time

Forecast for: ENBO (BODO VI (CIV/MIL, NO)
Text: TAF ENBO 1912/2012 12012KT 9999 FEW010 BKN070
Forecast period: 1200 UTC 19 April 2019 to 1200 UTC 20 April 2019
Forecast type: FROM: standard forecast or significant change
Winds: from the ESE (120 degrees) at 14 MPH (12 knots; 6.2 m/s)
Visibility: 6 or more miles 10+ km)
Ceiling: 7000 feet AGL
Clouds: few clouds at 1000 feet AGL
broken clouds at 7000 feet AGL
Weather: no significant weather forecast for this period
Text: PROB30 1912/1924 23015KT
Forecast period: 1200 UTC 19 April 2019 to 0000 UTC 20 April 2019
Forecast type: PROBABLE: 30 percent likelihood of the following during this time
Winds: from the SW (230 degrees) at 17 MPH (15 knots; 7.7 m/s)
Visibility: missing
Ceiling: unknown
Clouds: missing
Weather: no significant weather forecast for this period